createdAt,value
2023-02-04T00:00:23.130Z,9.27
2023-02-04T00:02:50.616Z,9.50
2023-02-04T00:05:19.238Z,8.23
2023-02-04T00:07:46.593Z,7.50
2023-02-04T00:10:14.101Z,8.20
2023-02-04T00:12:41.435Z,8.23
2023-02-04T00:15:10.782Z,8.47
2023-02-04T00:17:39.396Z,7.30
2023-02-04T00:20:07.100Z,8.67
2023-02-04T00:22:34.516Z,8.40
2023-02-04T00:25:01.898Z,8.43
2023-02-04T00:27:29.316Z,8.50
2023-02-04T00:29:57.709Z,7.97
2023-02-04T00:32:25.394Z,7.30
2023-02-04T00:34:54.936Z,8.00
2023-02-04T00:37:22.467Z,7.90
2023-02-04T00:39:49.890Z,7.83
2023-02-04T00:42:17.387Z,7.50
2023-02-04T00:44:44.796Z,7.30
2023-02-04T00:47:12.205Z,7.83
2023-02-04T00:49:39.565Z,8.83
2023-02-04T00:52:07.047Z,7.80
2023-02-04T00:54:34.451Z,8.30
2023-02-04T00:57:02.008Z,7.60
2023-02-04T00:59:29.951Z,8.50
2023-02-04T01:01:57.338Z,8.40
2023-02-04T01:04:25.809Z,8.30
2023-02-04T01:06:53.149Z,7.87
2023-02-04T01:09:20.585Z,7.47
2023-02-04T01:11:47.927Z,7.80
2023-02-04T01:14:15.343Z,6.40
2023-02-04T01:16:42.782Z,7.00
2023-02-04T01:19:10.223Z,5.73
2023-02-04T01:21:38.775Z,5.53
2023-02-04T01:24:07.459Z,5.93
2023-02-04T01:26:54.846Z,5.53
2023-02-04T01:29:22.171Z,5.93
2023-02-04T01:31:51.192Z,6.60
2023-02-04T01:34:18.553Z,6.37
2023-02-04T01:36:45.880Z,5.47
2023-02-04T01:39:13.699Z,6.13
2023-02-04T01:41:41.400Z,6.30
2023-02-04T01:44:08.734Z,6.20
2023-02-04T01:46:37.378Z,5.23
2023-02-04T01:49:05.764Z,6.13
2023-02-04T01:51:33.306Z,6.33
2023-02-04T01:54:01.059Z,6.60
2023-02-04T01:56:30.556Z,7.23
2023-02-04T01:58:58.557Z,7.43
2023-02-04T02:01:35.927Z,6.17
2023-02-04T02:04:03.598Z,6.23
2023-02-04T02:06:31.320Z,5.37
2023-02-04T02:08:58.996Z,4.57
2023-02-04T02:11:27.617Z,4.60
2023-02-04T02:13:55.246Z,5.53
2023-02-04T02:16:22.879Z,3.83
2023-02-04T02:18:50.899Z,4.40
2023-02-04T02:21:24.199Z,5.27
2023-02-04T02:23:54.224Z,5.53
2023-02-04T02:26:22.394Z,6.83
2023-02-04T02:28:50.183Z,4.67
2023-02-04T02:31:19.106Z,4.40
2023-02-04T02:33:47.118Z,5.30
2023-02-04T02:36:16.917Z,5.37
2023-02-04T02:38:44.413Z,5.30
2023-02-04T02:41:11.888Z,4.80
2023-02-04T02:43:39.571Z,5.37
2023-02-04T02:46:07.466Z,7.00
2023-02-04T02:48:34.938Z,6.63
2023-02-04T02:51:02.363Z,5.00
2023-02-04T02:53:29.739Z,4.33
2023-02-04T02:55:57.483Z,4.00
2023-02-04T02:58:34.851Z,4.87
2023-02-04T03:01:04.691Z,4.60
2023-02-04T03:03:36.869Z,4.17
2023-02-04T03:06:07.907Z,5.20
2023-02-04T03:08:35.604Z,4.10
2023-02-04T03:11:03.204Z,4.53
2023-02-04T03:13:31.816Z,4.47
2023-02-04T03:15:59.346Z,4.33
2023-02-04T03:18:27.251Z,4.50
2023-02-04T03:20:55.358Z,5.10
2023-02-04T03:23:22.809Z,3.90
2023-02-04T03:25:50.237Z,4.53
2023-02-04T03:28:18.447Z,4.90
2023-02-04T03:30:56.102Z,4.27
2023-02-04T03:33:31.662Z,4.57
2023-02-04T03:35:59.374Z,4.93
2023-02-04T03:38:26.866Z,4.20
2023-02-04T03:40:54.215Z,4.10
2023-02-04T03:43:21.640Z,4.57
2023-02-04T03:45:48.990Z,4.40
2023-02-04T03:48:16.278Z,3.83
2023-02-04T03:50:43.786Z,4.60
2023-02-04T03:53:11.197Z,5.43
2023-02-04T03:55:38.667Z,3.90
2023-02-04T03:58:06.705Z,4.30
2023-02-04T04:00:34.254Z,5.30
2023-02-04T04:03:01.642Z,4.93
2023-02-04T04:05:29.110Z,4.60
2023-02-04T04:07:56.780Z,3.93
2023-02-04T04:10:24.200Z,4.20
2023-02-04T04:12:51.570Z,3.80
2023-02-04T04:15:18.983Z,4.10
2023-02-04T04:17:46.340Z,4.50
2023-02-04T04:20:13.962Z,5.13
2023-02-04T04:22:41.307Z,4.90
2023-02-04T04:25:09.153Z,4.33
2023-02-04T04:27:36.513Z,3.73
2023-02-04T04:30:04.833Z,4.90
2023-02-04T04:32:32.169Z,4.53
2023-02-04T04:34:59.590Z,3.60
2023-02-04T04:37:27.152Z,4.40
2023-02-04T04:39:54.515Z,5.20
2023-02-04T04:42:22.084Z,4.47
2023-02-04T04:44:49.496Z,5.00
2023-02-04T04:47:16.880Z,4.13
2023-02-04T04:49:44.257Z,4.70
2023-02-04T04:52:11.815Z,4.10
2023-02-04T04:54:39.233Z,4.20
2023-02-04T04:57:06.563Z,3.73
2023-02-04T04:59:33.916Z,4.07
2023-02-04T05:02:01.316Z,4.07
2023-02-04T05:04:28.705Z,3.90
2023-02-04T05:06:56.129Z,4.90
2023-02-04T05:09:23.529Z,5.83
2023-02-04T05:11:50.917Z,6.77
2023-02-04T05:14:18.326Z,8.13
2023-02-04T05:16:45.688Z,6.47
2023-02-04T05:19:13.192Z,6.40
2023-02-04T05:21:40.851Z,6.10
2023-02-04T05:24:08.243Z,6.10
2023-02-04T05:26:35.607Z,7.23
2023-02-04T05:29:03.086Z,7.23
2023-02-04T05:31:30.479Z,5.77
2023-02-04T05:33:57.979Z,5.30
2023-02-04T05:36:25.373Z,4.90
2023-02-04T05:38:52.948Z,4.93
2023-02-04T05:41:20.355Z,4.60
2023-02-04T05:43:47.674Z,4.03
2023-02-04T05:46:15.156Z,5.30
2023-02-04T05:48:42.650Z,4.60
2023-02-04T05:51:10.016Z,3.60
2023-02-04T05:53:37.431Z,4.70
2023-02-04T05:56:04.969Z,3.43
2023-02-04T05:58:34.962Z,4.53
2023-02-04T06:01:03.532Z,3.93
2023-02-04T06:03:32.673Z,5.00
2023-02-04T06:06:00.121Z,6.77
2023-02-04T06:08:27.531Z,8.10
2023-02-04T06:10:54.880Z,6.27
2023-02-04T06:13:22.245Z,4.03
2023-02-04T06:15:49.591Z,4.10
2023-02-04T06:18:16.923Z,3.83
2023-02-04T06:20:44.386Z,4.60
2023-02-04T06:23:11.692Z,8.10
2023-02-04T06:25:39.070Z,10.70
2023-02-04T06:28:06.454Z,6.43
2023-02-04T06:30:34.074Z,5.63
2023-02-04T06:33:01.558Z,7.43
2023-02-04T06:35:29.043Z,4.97
2023-02-04T06:37:56.424Z,5.00
2023-02-04T06:40:23.756Z,5.17
2023-02-04T06:42:51.144Z,5.07
2023-02-04T06:45:18.522Z,6.53
2023-02-04T06:47:45.947Z,8.17
2023-02-04T06:50:18.501Z,10.27
2023-02-04T06:52:48.965Z,7.00
2023-02-04T06:55:17.746Z,5.20
2023-02-04T06:57:45.134Z,5.53
2023-02-04T07:00:13.126Z,6.73
2023-02-04T07:02:40.586Z,6.43
2023-02-04T07:05:08.485Z,5.60
2023-02-04T07:07:35.919Z,6.40
2023-02-04T07:10:03.565Z,6.87
2023-02-04T07:12:30.941Z,5.90
2023-02-04T07:14:58.255Z,6.93
2023-02-04T07:17:25.641Z,6.53
2023-02-04T07:19:53.054Z,7.07
2023-02-04T07:22:20.409Z,7.23
2023-02-04T07:24:47.833Z,5.90
2023-02-04T07:27:15.192Z,5.57
2023-02-04T07:29:42.529Z,7.20
2023-02-04T07:32:09.873Z,4.80
2023-02-04T07:34:37.328Z,7.13
2023-02-04T07:37:04.907Z,6.50
2023-02-04T07:39:32.328Z,7.80
2023-02-04T07:41:59.701Z,6.80
2023-02-04T07:44:33.940Z,6.77
2023-02-04T07:47:01.321Z,7.23
2023-02-04T07:49:29.012Z,7.13
2023-02-04T07:51:57.846Z,6.57
2023-02-04T07:54:25.269Z,6.20
2023-02-04T07:56:52.684Z,7.10
2023-02-04T07:59:20.026Z,8.10
2023-02-04T08:01:48.095Z,6.77
2023-02-04T08:04:15.565Z,6.83
2023-02-04T08:06:42.976Z,5.90
2023-02-04T08:09:10.388Z,6.30
2023-02-04T08:11:37.807Z,5.50
2023-02-04T08:14:05.117Z,6.00
2023-02-04T08:16:32.642Z,6.10
2023-02-04T08:19:00.092Z,6.80
2023-02-04T08:21:27.429Z,6.70
2023-02-04T08:23:54.803Z,6.00
2023-02-04T08:26:22.226Z,5.90
2023-02-04T08:28:49.814Z,5.87
2023-02-04T08:31:17.259Z,5.60
2023-02-04T08:33:44.641Z,7.17
2023-02-04T08:36:12.008Z,6.37
2023-02-04T08:38:40.508Z,8.77
2023-02-04T08:41:08.113Z,6.73
2023-02-04T08:43:36.847Z,6.73
2023-02-04T08:46:04.475Z,8.20
2023-02-04T08:48:31.957Z,7.70
2023-02-04T08:50:59.331Z,7.13
2023-02-04T08:53:26.816Z,18.00
2023-02-04T08:55:54.220Z,7.37
2023-02-04T08:58:21.576Z,7.30
2023-02-04T09:00:49.007Z,7.53
2023-02-04T09:03:16.379Z,11.27
2023-02-04T09:05:43.756Z,10.13
2023-02-04T09:08:11.161Z,10.70
2023-02-04T09:10:38.576Z,12.20
2023-02-04T09:13:05.939Z,10.17
2023-02-04T09:15:33.450Z,12.17
2023-02-04T09:18:15.164Z,9.77
2023-02-04T09:20:43.297Z,10.47
2023-02-04T09:23:12.190Z,8.30
2023-02-04T09:25:44.193Z,7.97
2023-02-04T09:28:12.830Z,6.37
2023-02-04T09:30:41.408Z,7.40
2023-02-04T09:33:09.248Z,7.73
2023-02-04T09:35:36.841Z,7.20
2023-02-04T09:38:04.704Z,9.17
2023-02-04T09:40:36.034Z,8.67
2023-02-04T09:43:04.545Z,17.20
2023-02-04T09:45:35.394Z,10.87
2023-02-04T09:48:09.524Z,8.70
2023-02-04T09:50:37.579Z,8.10
2023-02-04T09:53:06.675Z,8.07
2023-02-04T09:55:40.048Z,7.10
2023-02-04T09:58:17.405Z,6.87
2023-02-04T10:00:51.079Z,7.30
2023-02-04T10:03:22.075Z,7.37
2023-02-04T10:05:50.361Z,6.40
2023-02-04T10:08:20.999Z,8.73
2023-02-04T10:10:49.543Z,6.70
2023-02-04T10:13:44.270Z,4.83
2023-02-04T10:16:32.451Z,4.23
2023-02-04T10:19:04.584Z,5.73
2023-02-04T10:21:33.473Z,4.67
2023-02-04T10:24:02.961Z,4.37
2023-02-04T10:26:32.139Z,3.70
2023-02-04T10:29:03.629Z,4.10
2023-02-04T10:31:34.590Z,3.00
2023-02-04T10:34:10.969Z,4.13
2023-02-04T10:36:39.195Z,3.33
2023-02-04T10:39:21.302Z,4.70
2023-02-04T10:41:56.095Z,4.07
2023-02-04T10:44:30.269Z,2.73
2023-02-04T10:47:06.153Z,3.40
2023-02-04T10:49:33.841Z,2.60
2023-02-04T10:52:02.008Z,3.20
2023-02-04T10:54:35.777Z,3.63
2023-02-04T10:57:26.560Z,3.90
2023-02-04T10:59:59.755Z,2.87
2023-02-04T11:02:43.406Z,4.67
2023-02-04T11:05:17.473Z,2.63
2023-02-04T11:07:46.616Z,2.40
2023-02-04T11:10:25.320Z,2.60
2023-02-04T11:12:55.380Z,2.40
2023-02-04T11:15:45.544Z,2.60
2023-02-04T11:18:33.154Z,4.00
2023-02-04T11:21:00.812Z,3.90
2023-02-04T11:23:32.288Z,2.90
2023-02-04T11:26:19.190Z,3.40
2023-02-04T11:28:49.512Z,3.60
2023-02-04T11:31:22.895Z,3.33
2023-02-04T11:34:07.056Z,2.60
2023-02-04T11:36:34.456Z,2.43
2023-02-04T11:39:14.151Z,3.23
2023-02-04T11:41:46.094Z,2.97
2023-02-04T11:44:14.613Z,3.00
2023-02-04T11:46:42.255Z,2.37
2023-02-04T11:49:21.599Z,2.43
2023-02-04T11:51:49.200Z,2.90
2023-02-04T11:54:19.136Z,3.40
2023-02-04T11:56:47.640Z,3.03
2023-02-04T11:59:17.548Z,2.37
2023-02-04T12:01:44.880Z,2.60
2023-02-04T12:04:24.741Z,2.53
2023-02-04T12:07:03.580Z,2.83
2023-02-04T12:09:32.520Z,2.87
2023-02-04T12:12:02.449Z,2.30
2023-02-04T12:14:33.543Z,2.63
2023-02-04T12:17:01.021Z,2.30
2023-02-04T12:19:28.788Z,3.07
2023-02-04T12:21:56.514Z,2.00
2023-02-04T12:24:23.912Z,2.53
2023-02-04T12:26:51.661Z,2.13
2023-02-04T12:29:19.038Z,2.40
2023-02-04T12:31:46.513Z,2.97
2023-02-04T12:34:13.975Z,2.47
2023-02-04T12:36:41.312Z,1.63
2023-02-04T12:39:08.698Z,2.93
2023-02-04T12:41:36.474Z,1.57
2023-02-04T12:44:04.454Z,2.20
2023-02-04T12:46:31.895Z,2.30
2023-02-04T12:48:59.283Z,2.20
2023-02-04T12:51:26.651Z,1.63
2023-02-04T12:53:53.951Z,2.37
2023-02-04T12:56:24.062Z,1.77
2023-02-04T12:58:51.378Z,3.40
2023-02-04T13:01:18.793Z,1.87
2023-02-04T13:03:46.185Z,2.47
2023-02-04T13:06:13.576Z,2.07
2023-02-04T13:08:40.914Z,2.57
2023-02-04T13:11:08.220Z,2.27
2023-02-04T13:13:35.592Z,1.63
2023-02-04T13:16:02.995Z,1.97
2023-02-04T13:18:30.647Z,1.70
2023-02-04T13:20:57.981Z,2.27
2023-02-04T13:23:25.341Z,1.60
2023-02-04T13:25:52.670Z,3.43
2023-02-04T13:28:20.035Z,1.97
2023-02-04T13:30:47.398Z,2.40
2023-02-04T13:33:14.714Z,1.40
2023-02-04T13:35:42.074Z,2.13
2023-02-04T13:38:09.459Z,2.53
2023-02-04T13:40:37.003Z,2.67
2023-02-04T13:43:04.297Z,2.30
2023-02-04T13:45:32.011Z,3.10
2023-02-04T13:47:59.606Z,2.37
2023-02-04T13:50:27.271Z,3.40
2023-02-04T13:52:55.310Z,2.30
2023-02-04T13:55:22.771Z,2.37
2023-02-04T13:57:50.157Z,2.00
2023-02-04T14:00:17.671Z,2.57
2023-02-04T14:02:45.121Z,2.90
2023-02-04T14:05:12.453Z,2.47
2023-02-04T14:07:39.768Z,3.13
2023-02-04T14:10:07.882Z,3.50
2023-02-04T14:12:35.284Z,2.23
2023-02-04T14:15:02.572Z,3.27
2023-02-04T14:17:29.976Z,3.00
2023-02-04T14:19:57.455Z,2.73
2023-02-04T14:22:24.862Z,2.70
2023-02-04T14:24:52.295Z,3.23
2023-02-04T14:27:19.601Z,2.67
2023-02-04T14:29:46.903Z,2.43
2023-02-04T14:32:14.252Z,2.47
2023-02-04T14:34:41.625Z,2.90
2023-02-04T14:37:09.034Z,2.10
2023-02-04T14:39:36.447Z,2.70
2023-02-04T14:42:05.265Z,2.53
2023-02-04T14:44:33.107Z,2.30
2023-02-04T14:47:00.470Z,2.00
2023-02-04T14:49:27.782Z,2.00
2023-02-04T14:51:56.885Z,2.60
2023-02-04T14:54:24.386Z,3.00
2023-02-04T14:56:52.554Z,2.63
2023-02-04T14:59:19.915Z,2.40
2023-02-04T15:01:47.279Z,2.93
2023-02-04T15:04:14.598Z,2.97
2023-02-04T15:06:42.061Z,1.80
2023-02-04T15:09:09.441Z,3.07
2023-02-04T15:11:36.820Z,2.37
2023-02-04T15:14:04.203Z,3.27
2023-02-04T15:16:31.593Z,1.57
2023-02-04T15:18:59.051Z,3.10
2023-02-04T15:21:27.318Z,1.77
2023-02-04T15:23:54.686Z,2.50
2023-02-04T15:26:22.480Z,2.40
2023-02-04T15:28:49.818Z,2.23
2023-02-04T15:31:17.299Z,2.13
2023-02-04T15:33:44.753Z,1.73
2023-02-04T15:36:12.103Z,1.90
2023-02-04T15:38:39.585Z,2.20
2023-02-04T15:41:07.002Z,1.60
2023-02-04T15:43:34.328Z,2.97
2023-02-04T15:46:01.844Z,1.97
2023-02-04T15:48:29.245Z,1.80
2023-02-04T15:50:57.794Z,1.70
2023-02-04T15:53:25.259Z,1.60
2023-02-04T15:55:52.624Z,1.70
2023-02-04T15:58:19.994Z,1.77
2023-02-04T16:00:47.379Z,2.43
2023-02-04T16:03:14.755Z,1.57
2023-02-04T16:05:42.076Z,1.73
2023-02-04T16:08:09.384Z,1.63
2023-02-04T16:10:36.729Z,1.43
2023-02-04T16:13:04.104Z,1.30
2023-02-04T16:15:31.982Z,1.43
2023-02-04T16:17:59.611Z,1.00
2023-02-04T16:20:27.072Z,1.30
2023-02-04T16:22:54.543Z,1.90
2023-02-04T16:25:22.876Z,1.73
2023-02-04T16:27:50.572Z,1.97
2023-02-04T16:30:18.084Z,2.30
2023-02-04T16:32:45.470Z,1.53
2023-02-04T16:35:14.296Z,1.40
2023-02-04T16:37:41.774Z,1.63
2023-02-04T16:40:11.171Z,2.40
2023-02-04T16:42:38.658Z,2.20
2023-02-04T16:45:06.406Z,1.90
2023-02-04T16:47:33.799Z,2.80
2023-02-04T16:50:01.227Z,3.43
2023-02-04T16:52:29.305Z,1.70
2023-02-04T16:54:56.676Z,2.60
2023-02-04T16:57:24.095Z,2.00
2023-02-04T16:59:51.620Z,2.53
2023-02-04T17:02:18.935Z,2.63
2023-02-04T17:04:46.368Z,3.90
2023-02-04T17:07:13.706Z,3.33
2023-02-04T17:09:41.071Z,3.03
2023-02-04T17:12:08.451Z,5.07
2023-02-04T17:14:35.919Z,4.33
2023-02-04T17:17:03.432Z,3.97
2023-02-04T17:19:30.809Z,4.70
2023-02-04T17:21:59.020Z,5.50
2023-02-04T17:24:26.453Z,4.20
2023-02-04T17:26:53.790Z,3.80
2023-02-04T17:29:23.117Z,4.90
2023-02-04T17:31:52.642Z,4.83
2023-02-04T17:34:20.136Z,7.63
2023-02-04T17:36:47.507Z,5.57
2023-02-04T17:39:14.825Z,6.43
2023-02-04T17:41:42.188Z,4.73
2023-02-04T17:44:09.935Z,5.50
2023-02-04T17:46:37.439Z,5.23
2023-02-04T17:49:04.917Z,9.27
2023-02-04T17:51:32.894Z,8.73
2023-02-04T17:54:00.435Z,8.00
2023-02-04T17:56:27.865Z,8.00
2023-02-04T17:58:56.100Z,8.57
2023-02-04T18:01:23.724Z,8.93
2023-02-04T18:03:51.584Z,8.40
2023-02-04T18:06:27.102Z,7.40
2023-02-04T18:09:01.394Z,10.57
2023-02-04T18:11:32.984Z,13.57
2023-02-04T18:14:02.293Z,11.87
2023-02-04T18:16:34.362Z,12.73
2023-02-04T18:19:28.537Z,11.50
2023-02-04T18:21:56.203Z,10.37
2023-02-04T18:24:32.953Z,10.73
2023-02-04T18:27:04.689Z,9.93
2023-02-04T18:29:34.591Z,9.67
2023-02-04T18:32:36.833Z,10.53
2023-02-04T18:35:34.244Z,10.30
2023-02-04T18:38:01.642Z,13.27
2023-02-04T18:40:33.512Z,10.00
2023-02-04T18:43:28.005Z,11.73
2023-02-04T18:45:59.831Z,16.53
2023-02-04T18:48:27.132Z,13.80
2023-02-04T18:50:54.986Z,11.87
2023-02-04T18:53:29.151Z,10.13
2023-02-04T18:56:00.605Z,9.60
2023-02-04T18:58:34.128Z,6.63
2023-02-04T19:01:07.090Z,7.27
2023-02-04T19:03:42.192Z,5.70
2023-02-04T19:06:33.965Z,6.00
2023-02-04T19:09:10.083Z,9.60
2023-02-04T19:11:41.664Z,8.20
2023-02-04T19:14:40.858Z,11.20
2023-02-04T19:17:14.404Z,9.30
2023-02-04T19:19:52.424Z,9.30
2023-02-04T19:22:43.696Z,8.47
2023-02-04T19:25:26.033Z,8.80
2023-02-04T19:28:01.932Z,11.00
2023-02-04T19:30:29.385Z,9.77
2023-02-04T19:32:58.331Z,10.77
2023-02-04T19:35:28.562Z,8.70
2023-02-04T19:38:00.418Z,10.20
2023-02-04T19:40:27.766Z,8.47
2023-02-04T19:43:16.546Z,8.93
2023-02-04T19:45:44.851Z,9.30
2023-02-04T19:48:21.076Z,7.00
2023-02-04T19:50:51.006Z,6.80
2023-02-04T19:53:22.874Z,7.30
2023-02-04T19:55:54.115Z,6.77
2023-02-04T19:58:41.854Z,8.70
2023-02-04T20:01:16.516Z,8.23
2023-02-04T20:03:45.649Z,8.77
2023-02-04T20:06:33.905Z,9.03
2023-02-04T20:09:23.447Z,10.80
2023-02-04T20:11:57.875Z,8.73
2023-02-04T20:14:37.640Z,6.60
2023-02-04T20:17:18.315Z,7.50
2023-02-04T20:19:46.154Z,8.73
2023-02-04T20:22:23.400Z,13.80
2023-02-04T20:25:19.733Z,11.47
2023-02-04T20:27:55.192Z,9.30
2023-02-04T20:30:27.913Z,9.33
2023-02-04T20:32:58.702Z,11.90
2023-02-04T20:35:32.332Z,9.10
2023-02-04T20:38:07.266Z,13.90
2023-02-04T20:40:35.938Z,12.10
2023-02-04T20:43:13.188Z,13.30
2023-02-04T20:45:59.627Z,17.10
2023-02-04T20:48:34.024Z,19.53
2023-02-04T20:51:03.938Z,18.83
2023-02-04T20:53:54.106Z,14.67
2023-02-04T20:56:27.551Z,16.77
2023-02-04T20:58:58.074Z,14.33
2023-02-04T21:01:37.174Z,13.90
2023-02-04T21:04:30.195Z,14.80
2023-02-04T21:07:21.887Z,13.90
2023-02-04T21:09:49.797Z,10.23
2023-02-04T21:12:17.154Z,11.00
2023-02-04T21:14:44.689Z,11.17
2023-02-04T21:17:12.018Z,11.97
2023-02-04T21:19:39.413Z,12.03
2023-02-04T21:22:06.741Z,11.30
2023-02-04T21:24:34.232Z,13.17
2023-02-04T21:27:01.818Z,11.50
2023-02-04T21:29:29.196Z,11.90
2023-02-04T21:31:56.629Z,12.47
2023-02-04T21:34:24.010Z,14.10
2023-02-04T21:36:51.323Z,12.60
2023-02-04T21:39:20.718Z,9.20
2023-02-04T21:42:08.040Z,9.00
2023-02-04T21:44:38.222Z,9.10
2023-02-04T21:47:05.922Z,8.77
2023-02-04T21:49:33.253Z,7.10
2023-02-04T21:52:01.321Z,7.53
2023-02-04T21:54:28.651Z,8.50
2023-02-04T21:56:56.064Z,10.53
2023-02-04T21:59:25.201Z,9.10
2023-02-04T22:01:52.617Z,9.07
2023-02-04T22:04:20.008Z,12.47
2023-02-04T22:06:47.448Z,13.00
2023-02-04T22:09:15.830Z,17.03
2023-02-04T22:11:43.291Z,15.30
2023-02-04T22:14:10.620Z,15.97
2023-02-04T22:16:37.993Z,12.87
2023-02-04T22:19:05.282Z,12.90
2023-02-04T22:21:34.758Z,14.87
2023-02-04T22:24:02.070Z,12.53
2023-02-04T22:26:29.418Z,13.30
2023-02-04T22:28:56.841Z,16.03
2023-02-04T22:31:24.288Z,13.67
2023-02-04T22:33:51.712Z,16.37
2023-02-04T22:36:19.134Z,13.50
2023-02-04T22:38:46.505Z,11.73
2023-02-04T22:41:14.194Z,13.70
2023-02-04T22:43:41.497Z,15.40
2023-02-04T22:46:08.801Z,18.77
2023-02-04T22:48:36.163Z,19.67
2023-02-04T22:51:03.713Z,15.93
2023-02-04T22:53:31.254Z,15.57
2023-02-04T22:55:58.580Z,13.00
2023-02-04T22:58:25.964Z,14.60
2023-02-04T23:00:53.565Z,14.23
2023-02-04T23:03:20.989Z,13.00
2023-02-04T23:05:48.367Z,13.10
2023-02-04T23:08:17.745Z,13.00
2023-02-04T23:10:45.982Z,11.03
2023-02-04T23:13:13.429Z,11.37
2023-02-04T23:15:40.792Z,12.30
2023-02-04T23:18:08.246Z,9.30
2023-02-04T23:20:36.494Z,9.30
2023-02-04T23:23:04.001Z,9.20
2023-02-04T23:25:31.833Z,8.80
2023-02-04T23:27:59.344Z,8.27
2023-02-04T23:30:26.767Z,8.53
2023-02-04T23:32:54.112Z,7.87
2023-02-04T23:35:21.550Z,10.80
2023-02-04T23:37:48.837Z,10.77
2023-02-04T23:40:16.313Z,12.60
2023-02-04T23:42:43.717Z,11.47
2023-02-04T23:45:11.160Z,13.03
2023-02-04T23:47:38.517Z,14.10
2023-02-04T23:50:06.121Z,12.70
2023-02-04T23:52:33.503Z,12.70
2023-02-04T23:55:00.831Z,12.60
2023-02-04T23:57:28.235Z,13.30
2023-02-04T23:59:55.591Z,14.20
